Time;durP1;ratioP1;P1;durP2;ratioP2;P2;SDS_P1;SDS_P2;PMS_P1;PMS_P2;Temp;Humidity;BMP_temperature;BMP_pressure;BME280_temperature;BME280_humidity;BME280_pressure;Samples;Min_cycle;Max_cycle;Signal;HPM_P1;HPM_P2
2023/10/18 00:02:18;;;;;;;20.95;8.73;;;;;;;4.91;100.00;98553.84;4989707;28;20037;-62
2023/10/18 00:04:45;;;;;;;14.70;8.18;;;;;;;4.92;100.00;98555.50;5010028;28;20096;-62
2023/10/18 00:07:12;;;;;;;17.98;9.00;;;;;;;5.00;100.00;98544.78;4994958;28;20064;-62
2023/10/18 00:09:56;;;;;;;14.32;8.73;;;;;;;4.98;100.00;98537.91;4996846;28;20033;-62
2023/10/18 00:12:22;;;;;;;18.60;9.57;;;;;;;4.98;100.00;98535.22;4985752;28;20026;-63
2023/10/18 00:14:51;;;;;;;14.45;8.60;;;;;;;5.03;100.00;98528.34;4986536;28;20030;-62
2023/10/18 00:17:16;;;;;;;16.70;9.00;;;;;;;5.14;100.00;98523.59;4983499;28;20039;-62
2023/10/18 00:19:43;;;;;;;19.02;9.43;;;;;;;5.18;100.00;98524.91;4990250;28;20029;-62
2023/10/18 00:22:09;;;;;;;14.23;8.52;;;;;;;5.07;100.00;98518.09;4988671;28;20034;-62
2023/10/18 00:24:39;;;;;;;16.85;8.82;;;;;;;5.04;100.00;98518.44;4993052;28;20029;-68
2023/10/18 00:27:05;;;;;;;16.05;8.30;;;;;;;5.13;100.00;98520.06;4993188;28;20042;-62
2023/10/18 00:29:34;;;;;;;14.88;8.23;;;;;;;5.10;100.00;98511.53;4984500;28;20058;-63
2023/10/18 00:31:59;;;;;;;13.65;7.55;;;;;;;4.90;100.00;98509.28;4995267;28;20045;-62
2023/10/18 00:34:25;;;;;;;15.07;7.82;;;;;;;4.76;100.00;98510.00;4999096;28;20029;-62
2023/10/18 00:36:50;;;;;;;14.15;7.45;;;;;;;4.60;100.00;98505.53;5000640;28;20060;-62
2023/10/18 00:39:51;;;;;;;13.85;8.07;;;;;;;4.49;100.00;98504.06;4997248;28;20050;-62
2023/10/18 00:42:25;;;;;;;15.75;8.40;;;;;;;4.52;100.00;98514.44;5010164;28;20048;-62
2023/10/18 00:44:55;;;;;;;15.65;8.10;;;;;;;4.50;100.00;98513.75;4989903;28;20489;-62
2023/10/18 00:47:23;;;;;;;;;;;;;;;4.52;100.00;98509.09;4994851;28;20053;-63
2023/10/18 00:49:52;;;;;;;11.45;6.63;;;;;;;4.34;100.00;98516.50;4988674;28;19939;-62
2023/10/18 00:52:20;;;;;;;11.40;6.80;;;;;;;4.13;100.00;98509.00;4995756;28;20409;-62
2023/10/18 00:54:46;;;;;;;20.45;7.05;;;;;;;3.90;100.00;98499.00;4999502;28;20468;-62
2023/10/18 00:57:12;;;;;;;16.15;7.60;;;;;;;3.70;100.00;98503.00;4993685;28;20042;-62
2023/10/18 00:59:38;;;;;;;18.23;8.35;;;;;;;3.73;100.00;98498.16;4998572;28;20022;-62
2023/10/18 01:02:10;;;;;;;20.38;9.50;;;;;;;3.64;100.00;98506.34;4994656;28;20033;-62
2023/10/18 01:04:37;;;;;;;17.42;9.25;;;;;;;3.69;100.00;98504.84;4997072;28;20105;-62
2023/10/18 01:07:11;;;;;;;15.63;9.30;;;;;;;3.71;100.00;98499.31;4995534;28;20022;-62
2023/10/18 01:09:37;;;;;;;17.55;8.93;;;;;;;3.71;100.00;98491.28;4985857;28;20490;-62
2023/10/18 01:12:04;;;;;;;14.00;8.32;;;;;;;3.66;100.00;98486.44;4995955;28;20129;-62
2023/10/18 01:14:30;;;;;;;16.88;9.30;;;;;;;3.70;100.00;98481.59;4994021;28;20516;-63
2023/10/18 01:16:56;;;;;;;14.55;8.52;;;;;;;3.58;100.00;98470.41;4992504;28;20030;-63
2023/10/18 01:19:22;;;;;;;18.45;9.82;;;;;;;3.49;100.00;98484.78;4993923;28;20037;-62
2023/10/18 01:21:51;;;;;;;19.45;9.18;;;;;;;3.44;100.00;98479.09;4996126;28;20481;-62
2023/10/18 01:24:18;;;;;;;20.83;9.77;;;;;;;3.48;100.00;98481.28;4990906;28;20053;-62
2023/10/18 01:26:44;;;;;;;18.23;10.63;;;;;;;3.49;100.00;98476.75;5000095;28;20084;-62
2023/10/18 01:29:10;;;;;;;17.17;9.60;;;;;;;3.57;100.00;98467.91;5004221;28;20510;-62
2023/10/18 01:31:37;;;;;;;15.32;8.55;;;;;;;3.50;100.00;98465.03;4996602;28;20385;-67
2023/10/18 01:34:05;;;;;;;14.55;8.25;;;;;;;3.48;100.00;98457.22;4996519;28;20040;-62
2023/10/18 01:36:32;;;;;;;12.23;6.63;;;;;;;3.46;100.00;98463.72;5000334;28;20021;-62
2023/10/18 01:38:58;;;;;;;17.95;10.07;;;;;;;3.34;100.00;98460.53;4989657;28;20964;-62
2023/10/18 01:41:33;;;;;;;21.77;10.25;;;;;;;3.32;100.00;98459.84;4996729;28;20120;-62
2023/10/18 01:44:06;;;;;;;17.85;9.23;;;;;;;3.33;100.00;98452.66;4997418;28;20511;-62
2023/10/18 01:46:46;;;;;;;18.27;10.10;;;;;;;3.28;100.00;98456.69;4988985;28;20027;-63
2023/10/18 01:49:21;;;;;;;20.23;9.05;;;;;;;3.22;100.00;98452.00;4989548;28;20523;-62
2023/10/18 01:51:50;;;;;;;17.52;9.23;;;;;;;3.26;100.00;98457.84;4995530;28;20029;-62
2023/10/18 01:54:16;;;;;;;22.05;9.98;;;;;;;3.21;100.00;98453.00;4997554;28;20032;-62
2023/10/18 01:56:48;;;;;;;20.33;9.88;;;;;;;3.26;100.00;98450.66;4997868;28;20018;-62
2023/10/18 01:59:14;;;;;;;16.00;8.93;;;;;;;3.21;100.00;98458.34;4997641;28;20042;-62
2023/10/18 02:01:40;;;;;;;20.25;9.45;;;;;;;3.23;100.00;98453.66;4995269;28;20025;-62
2023/10/18 02:04:11;;;;;;;17.40;8.88;;;;;;;3.18;100.00;98456.00;4995056;28;20481;-62
2023/10/18 02:06:37;;;;;;;15.80;8.18;;;;;;;3.02;100.00;98451.47;4989751;28;20026;-62
2023/10/18 02:09:09;;;;;;;18.00;9.02;;;;;;;2.88;100.00;98432.53;5030793;23;20037;-79
2023/10/18 02:11:35;;;;;;;20.05;10.35;;;;;;;2.78;100.00;98422.03;5018832;28;20223;-79
2023/10/18 02:14:01;;;;;;;16.80;9.10;;;;;;;2.81;100.00;98433.22;5007465;28;20028;-79
2023/10/18 02:16:28;;;;;;;21.80;10.10;;;;;;;2.93;100.00;98436.38;5003324;28;20022;-79
2023/10/18 02:18:54;;;;;;;23.85;11.00;;;;;;;2.96;100.00;98436.09;4988350;28;20281;-78
2023/10/18 02:21:21;;;;;;;20.80;10.68;;;;;;;2.84;100.00;98430.19;5031888;28;20040;-78
2023/10/18 02:23:50;;;;;;;20.70;10.52;;;;;;;2.84;100.00;98432.88;5007731;28;20022;-78
2023/10/18 02:28:54;;;;;;;20.52;10.00;;;;;;;2.80;100.00;98426.19;5025105;28;19909;-78
2023/10/18 02:31:22;;;;;;;19.67;9.70;;;;;;;2.84;100.00;98426.69;5035554;28;20034;-78
2023/10/18 02:33:53;;;;;;;18.67;9.90;;;;;;;2.75;100.00;98414.31;5025756;28;20254;-78
2023/10/18 02:36:21;;;;;;;19.63;9.40;;;;;;;2.83;100.00;98436.56;5031916;28;20028;-78
2023/10/18 02:38:49;;;;;;;14.40;7.87;;;;;;;2.74;100.00;98447.38;5024212;28;20022;-78
2023/10/18 02:41:15;;;;;;;17.50;9.65;;;;;;;2.52;100.00;98403.41;5018663;28;20045;-78
2023/10/18 02:43:58;;;;;;;21.75;10.63;;;;;;;2.62;100.00;98422.81;5020666;28;20071;-78
2023/10/18 02:46:24;;;;;;;21.38;9.63;;;;;;;2.58;100.00;98432.97;5014019;28;20018;-78
2023/10/18 02:48:56;;;;;;;21.52;10.40;;;;;;;2.59;100.00;98437.31;5025077;28;20033;-78
2023/10/18 02:51:24;;;;;;;20.73;10.32;;;;;;;2.61;100.00;98434.47;5018414;28;20037;-78
2023/10/18 02:53:53;;;;;;;20.70;11.55;;;;;;;2.50;100.00;98426.78;5000217;28;20034;-78
2023/10/18 02:56:27;;;;;;;21.85;10.70;;;;;;;2.54;100.00;98438.78;5015430;28;20259;-78
2023/10/18 02:58:55;;;;;;;20.75;11.13;;;;;;;2.66;100.00;98442.84;5006595;28;20218;-78
2023/10/18 03:01:21;;;;;;;22.00;10.88;;;;;;;2.56;100.00;98418.09;5004705;28;20017;-78
2023/10/18 03:03:49;;;;;;;21.45;10.30;;;;;;;2.76;100.00;98442.72;5022948;28;20025;-77
2023/10/18 03:06:14;;;;;;;16.80;9.48;;;;;;;2.69;100.00;98422.97;5026315;28;20315;-78
2023/10/18 03:08:49;;;;;;;20.40;10.65;;;;;;;2.61;100.00;98397.91;5031730;28;20032;-78
2023/10/18 03:11:14;;;;;;;20.10;10.75;;;;;;;2.68;100.00;98411.47;5003719;28;20067;-78
2023/10/18 03:13:39;;;;;;;24.98;10.15;;;;;;;2.80;100.00;98403.97;4999878;28;20310;-78
2023/10/18 03:16:47;;;;;;;25.17;11.75;;;;;;;2.89;100.00;98416.38;5005676;28;20049;-79
2023/10/18 03:18:53;;;;;;;21.73;11.55;;;;;;;2.71;100.00;98395.13;5006132;28;20033;-78
2023/10/18 03:21:22;;;;;;;22.55;12.20;;;;;;;2.95;100.00;98417.53;5033146;28;20096;-79
2023/10/18 03:23:50;;;;;;;23.33;11.63;;;;;;;2.90;100.00;98419.88;4999497;28;20025;-78
2023/10/18 03:26:23;;;;;;;23.60;11.45;;;;;;;2.82;100.00;98400.13;5015437;28;20088;-78
2023/10/18 03:28:52;;;;;;;24.83;11.70;;;;;;;2.75;100.00;98390.25;5016497;28;20253;-77
2023/10/18 03:31:27;;;;;;;24.02;10.65;;;;;;;2.78;100.00;98406.00;5027492;28;20056;-78
2023/10/18 03:34:02;;;;;;;20.17;11.32;;;;;;;2.96;100.00;98409.38;5023278;28;20029;-78
2023/10/18 03:36:31;;;;;;;25.63;11.00;;;;;;;2.89;100.00;98394.16;5005525;28;20196;-78
2023/10/18 03:39:00;;;;;;;22.30;11.85;;;;;;;3.00;100.00;98383.97;5000446;28;20017;-78
2023/10/18 03:41:34;;;;;;;21.77;11.88;;;;;;;2.98;100.00;98371.78;5034374;28;20028;-78
2023/10/18 03:44:09;;;;;;;17.13;9.55;;;;;;;2.87;100.00;98375.59;5026667;28;20026;-78
2023/10/18 03:46:39;;;;;;;19.55;9.13;;;;;;;2.74;100.00;98384.09;4997716;28;20080;-78
2023/10/18 03:49:10;;;;;;;16.65;9.13;;;;;;;2.68;100.00;98374.06;5004488;28;20092;-78
2023/10/18 03:51:37;;;;;;;17.25;9.10;;;;;;;2.56;100.00;98370.03;5013705;28;20014;-76
2023/10/18 03:54:04;;;;;;;17.02;9.73;;;;;;;2.48;100.00;98367.34;5039247;28;20021;-77
2023/10/18 03:56:32;;;;;;;17.17;9.35;;;;;;;2.31;100.00;98335.28;5005340;28;20021;-77
2023/10/18 03:59:19;;;;;;;20.42;10.40;;;;;;;2.39;100.00;98329.94;5025461;28;20315;-77
2023/10/18 04:01:49;;;;;;;25.63;10.38;;;;;;;2.68;100.00;98382.09;4999478;28;20032;-75
2023/10/18 04:04:18;;;;;;;20.17;10.13;;;;;;;2.70;100.00;98374.75;5018938;28;20045;-75
2023/10/18 04:06:45;;;;;;;17.92;10.23;;;;;;;2.63;100.00;98384.41;5001762;28;20026;-79
2023/10/18 04:09:14;;;;;;;18.52;9.15;;;;;;;2.51;100.00;98369.69;5030016;28;20132;-77
2023/10/18 04:11:40;;;;;;;19.63;9.60;;;;;;;2.50;100.00;98381.38;5042608;28;20762;-79
2023/10/18 04:14:06;;;;;;;18.02;9.73;;;;;;;2.40;100.00;98358.31;5025822;28;20096;-78
2023/10/18 04:16:31;;;;;;;18.15;9.77;;;;;;;2.47;100.00;98369.19;5041036;28;20025;-76
2023/10/18 04:18:58;;;;;;;21.52;10.57;;;;;;;2.38;100.00;98336.31;5042640;28;20021;-74
2023/10/18 04:21:27;;;;;;;21.05;10.30;;;;;;;2.53;100.00;98370.38;5021517;28;20017;-76
2023/10/18 04:23:56;;;;;;;23.20;11.52;;;;;;;2.41;100.00;98362.66;5036749;28;20071;-85
2023/10/18 04:26:22;;;;;;;19.88;11.05;;;;;;;2.26;100.00;98332.25;5013504;28;20036;-83
2023/10/18 04:28:48;;;;;;;21.30;10.98;;;;;;;2.02;100.00;98295.66;5037910;28;20049;-85
2023/10/18 04:31:14;;;;;;;26.83;13.48;;;;;;;2.24;100.00;98320.91;5028011;28;20025;-82
2023/10/18 04:33:49;;;;;;;31.05;15.52;;;;;;;2.30;100.00;98320.22;5034893;28;20052;-80
2023/10/18 04:36:15;;;;;;;31.63;16.25;;;;;;;2.46;100.00;98327.44;5029936;28;20037;-82
2023/10/18 04:38:46;;;;;;;25.58;13.55;;;;;;;2.56;100.00;98332.66;5018645;28;20013;-82
2023/10/18 04:44:08;;;;;;;20.95;10.85;;;;;;;2.65;100.00;98347.69;5033336;28;20345;-81
2023/10/18 04:46:37;;;;;;;24.05;11.23;;;;;;;2.56;100.00;98343.34;5024079;28;20026;-74
2023/10/18 04:54:15;;;;;;;24.80;12.43;;;;;;;2.51;100.00;98329.63;5045649;28;20210;-74
2023/10/18 04:56:45;;;;;;;21.98;12.07;;;;;;;2.66;100.00;98319.97;5016858;28;20029;-75
2023/10/18 05:04:18;;;;;;;20.98;12.18;;;;;;;2.58;100.00;98295.94;5040881;28;20326;-78
2023/10/18 05:06:53;;;;;;;25.05;12.57;;;;;;;2.40;100.00;98266.72;5029080;28;20044;-76
2023/10/18 05:09:18;;;;;;;24.95;11.30;;;;;;;2.45;100.00;98284.91;5025294;28;20227;-76
2023/10/18 05:11:47;;;;;;;28.67;13.18;;;;;;;2.40;100.00;98291.56;5037483;28;20045;-75
2023/10/18 05:14:35;;;;;;;26.52;12.10;;;;;;;2.40;100.00;98312.09;5042773;28;20044;-75
2023/10/18 05:17:01;;;;;;;26.52;12.15;;;;;;;2.48;100.00;98312.09;5027298;28;20025;-75
2023/10/18 05:19:31;;;;;;;23.83;10.95;;;;;;;2.38;100.00;98288.25;5022754;28;20033;-76
2023/10/18 05:21:56;;;;;;;27.17;11.25;;;;;;;2.18;100.00;98274.34;5045172;28;20040;-76
2023/10/18 05:24:22;;;;;;;21.85;11.15;;;;;;;2.22;100.00;98276.69;5027358;28;20387;-76
2023/10/18 05:26:54;;;;;;;17.95;10.65;;;;;;;2.06;100.00;98258.78;5017419;28;20025;-77
2023/10/18 05:29:19;;;;;;;26.45;11.07;;;;;;;2.24;100.00;98280.03;5048615;28;20267;-75
2023/10/18 05:34:51;;;;;;;26.85;12.32;;;;;;;2.42;100.00;98286.91;5025774;28;20097;-78
2023/10/18 05:37:19;;;;;;;25.00;13.05;;;;;;;2.53;100.00;98295.59;5026455;28;20021;-77
2023/10/18 05:40:41;;;;;;;27.50;13.38;;;;;;;2.32;100.00;98272.03;5027640;28;20196;-80
2023/10/18 05:42:35;;;;;;;27.42;12.65;;;;;;;2.33;100.00;98277.22;5036949;28;20103;-79
2023/10/18 05:45:00;;;;;;;24.38;12.35;;;;;;;2.20;100.00;98284.84;5032502;28;20022;-76
2023/10/18 05:47:26;;;;;;;21.25;10.65;;;;;;;2.10;100.00;98285.00;5026437;28;20036;-75
2023/10/18 05:49:53;;;;;;;26.52;12.85;;;;;;;2.12;100.00;98293.69;5027700;28;20029;-79
2023/10/18 05:52:29;;;;;;;22.83;11.85;;;;;;;2.07;100.00;98279.13;5049827;28;20088;-77
2023/10/18 05:54:56;;;;;;;26.83;13.35;;;;;;;2.18;100.00;98292.19;5029570;28;20030;-73
2023/10/18 05:57:23;;;;;;;26.05;12.90;;;;;;;2.32;100.00;98298.72;5029459;28;20028;-74
2023/10/18 05:59:49;;;;;;;25.08;12.05;;;;;;;2.29;100.00;98277.72;5031582;28;20052;-73
2023/10/18 06:02:22;;;;;;;25.45;12.52;;;;;;;2.29;100.00;98288.38;5051598;28;20029;-74
2023/10/18 06:04:48;;;;;;;27.45;13.00;;;;;;;2.38;100.00;98287.38;5044528;28;20021;-73
2023/10/18 06:07:13;;;;;;;26.13;13.38;;;;;;;2.51;100.00;98285.06;5025817;28;20079;-73
2023/10/18 06:09:46;;;;;;;26.67;12.95;;;;;;;2.51;100.00;98266.38;5017696;28;20405;-73
2023/10/18 06:12:22;;;;;;;23.83;13.32;;;;;;;2.79;100.00;98285.59;5038588;28;20036;-74
2023/10/18 06:14:51;;;;;;;31.05;14.02;;;;;;;3.00;100.00;98269.06;5036492;28;20032;-73
2023/10/18 06:17:22;;;;;;;26.33;14.18;;;;;;;3.20;100.00;98264.22;5023130;28;20029;-75
2023/10/18 06:19:50;;;;;;;22.38;11.80;;;;;;;3.56;100.00;98277.13;5043425;28;20278;-78
2023/10/18 06:22:27;;;;;;;25.20;12.02;;;;;;;3.73;100.00;98270.75;5031374;28;20341;-74
2023/10/18 06:24:55;;;;;;;21.05;11.35;;;;;;;3.85;100.00;98267.69;5043303;28;20040;-82
2023/10/18 06:27:20;;;;;;;25.65;11.35;;;;;;;3.91;100.00;98250.94;5048973;28;20041;-75
2023/10/18 06:29:49;;;;;;;24.77;12.63;;;;;;;4.28;100.00;98255.59;5016698;28;20021;-77
2023/10/18 06:32:15;;;;;;;19.92;11.48;;;;;;;4.51;100.00;98236.84;5031862;28;20119;-77
2023/10/18 06:34:44;;;;;;;23.88;11.43;;;;;;;4.89;100.00;98244.09;5025344;28;20026;-75
2023/10/18 06:37:22;;;;;;;19.10;10.52;;;;;;;5.10;100.00;98227.31;5022069;28;20052;-75
2023/10/18 06:39:51;;;;;;;19.27;10.20;;;;;;;5.25;100.00;98238.91;5019912;28;20233;-75
2023/10/18 06:42:17;;;;;;;15.20;9.48;;;;;;;5.38;100.00;98225.69;5032818;28;20364;-73
2023/10/18 06:44:43;;;;;;;12.57;7.97;;;;;;;5.36;100.00;98221.50;5022861;28;20231;-76
2023/10/18 06:47:13;;;;;;;16.17;8.75;;;;;;;5.57;100.00;98204.69;5026811;28;20059;-82
2023/10/18 06:49:42;;;;;;;18.30;8.77;;;;;;;5.78;100.00;98211.97;5028827;28;20218;-72
2023/10/18 06:52:08;;;;;;;21.38;9.70;;;;;;;5.78;100.00;98199.38;5028794;28;20341;-77
2023/10/18 06:54:38;;;;;;;18.23;10.77;;;;;;;6.13;100.00;98195.09;5034985;28;20104;-76
2023/10/18 06:57:18;;;;;;;19.00;10.55;;;;;;;6.88;100.00;98200.13;5026477;28;20222;-80
2023/10/18 06:59:47;;;;;;;18.08;10.00;;;;;;;7.62;100.00;98178.03;5029339;28;20024;-77
2023/10/18 07:02:14;;;;;;;18.70;8.80;;;;;;;7.79;100.00;98183.91;5027950;28;20022;-78
2023/10/18 07:04:50;;;;;;;53.85;22.08;;;;;;;8.46;100.00;98182.25;5025992;28;20036;-75
2023/10/18 07:07:20;;;;;;;46.13;17.52;;;;;;;9.31;100.00;98183.31;5039349;28;20260;-74
2023/10/18 07:09:45;;;;;;;88.72;32.67;;;;;;;9.50;100.00;98173.50;5038653;28;20023;-73
2023/10/18 07:12:12;;;;;;;32.05;15.57;;;;;;;9.54;100.00;98160.41;5044143;28;20076;-77
2023/10/18 07:14:38;;;;;;;18.63;9.55;;;;;;;9.80;100.00;98165.72;5035916;28;20021;-75
2023/10/18 07:17:09;;;;;;;14.98;8.15;;;;;;;10.62;100.00;98165.91;5038391;28;20029;-75
2023/10/18 07:19:47;;;;;;;13.50;7.57;;;;;;;10.56;100.00;98160.53;5038269;28;20092;-74
2023/10/18 07:22:21;;;;;;;14.18;7.45;;;;;;;11.04;100.00;98158.06;5017973;28;20101;-73
2023/10/18 07:24:47;;;;;;;12.15;8.27;;;;;;;10.70;100.00;98178.34;5040997;28;20200;-71
2023/10/18 07:27:15;;;;;;;14.13;8.35;;;;;;;11.44;100.00;98151.44;5025139;28;20349;-72
2023/10/18 07:29:46;;;;;;;13.80;8.48;;;;;;;11.27;100.00;98145.78;5029229;28;20025;-72
2023/10/18 07:32:14;;;;;;;13.23;8.27;;;;;;;12.09;100.00;98142.75;5038056;28;20048;-75
2023/10/18 07:34:42;;;;;;;13.63;7.90;;;;;;;12.44;100.00;98154.56;5025178;28;20021;-73
2023/10/18 07:38:08;;;;;;;15.10;8.75;;;;;;;12.58;100.00;98135.38;5022543;28;20032;-72
2023/10/18 07:40:08;;;;;;;12.25;8.57;;;;;;;13.42;100.00;98127.88;5033852;28;20038;-76
2023/10/18 07:42:40;;;;;;;13.68;8.95;;;;;;;13.99;100.00;98138.88;5031593;28;20029;-74
2023/10/18 07:45:08;;;;;;;12.30;8.40;;;;;;;14.24;100.00;98124.09;5028483;28;20013;-74
2023/10/18 07:47:37;;;;;;;17.35;8.57;;;;;;;14.32;100.00;98112.81;5023989;28;20025;-73
2023/10/18 07:50:10;;;;;;;;;;;;;;;14.02;100.00;98126.69;5042987;28;20033;-73
2023/10/18 07:52:39;;;;;;;12.27;8.18;;;;;;;13.10;100.00;98105.69;5045586;28;19921;-73
2023/10/18 07:55:05;;;;;;;15.18;8.75;;;;;;;12.46;100.00;98103.59;5021044;28;20037;-74
2023/10/18 07:57:34;;;;;;;14.18;9.60;;;;;;;11.23;100.00;98090.41;5043921;28;20109;-72
2023/10/18 08:00:21;;;;;;;15.95;9.07;;;;;;;10.42;100.00;98095.72;5026797;28;20049;-71
2023/10/18 08:02:46;;;;;;;15.15;9.63;;;;;;;9.97;100.00;98098.50;5025873;28;20519;-75
2023/10/18 08:05:17;;;;;;;14.93;10.20;;;;;;;10.08;100.00;98094.25;5020027;28;20035;-75
2023/10/18 08:07:49;;;;;;;18.05;9.70;;;;;;;9.93;100.00;98096.44;5017528;28;20017;-77
2023/10/18 08:10:19;;;;;;;13.05;8.30;;;;;;;10.08;100.00;98107.78;5019423;28;20060;-74
2023/10/18 08:12:44;;;;;;;12.52;8.68;;;;;;;9.70;100.00;98083.47;5022022;28;20040;-77
2023/10/18 08:15:22;;;;;;;15.45;9.18;;;;;;;9.57;100.00;98096.00;5042622;28;20052;-83
2023/10/18 08:17:50;;;;;;;14.02;9.20;;;;;;;9.72;100.00;98084.06;5016559;28;20090;-80
2023/10/18 08:22:51;;;;;;;15.00;9.55;;;;;;;9.98;100.00;98083.94;5040569;28;20029;-78
2023/10/18 08:25:24;;;;;;;14.13;9.00;;;;;;;10.90;100.00;98080.75;5028058;28;20028;-78
2023/10/18 08:27:53;;;;;;;12.85;8.20;;;;;;;12.14;100.00;98078.63;5018949;28;20315;-82
2023/10/18 08:30:38;;;;;;;14.32;8.70;;;;;;;13.07;100.00;98070.84;5026088;28;20124;-79
2023/10/18 08:33:07;;;;;;;11.88;8.10;;;;;;;13.52;100.00;98071.03;5023732;28;20100;-81
2023/10/18 08:35:33;;;;;;;14.68;8.70;;;;;;;13.55;100.00;98084.16;5035227;28;20032;-78
2023/10/18 08:38:01;;;;;;;12.40;8.05;;;;;;;13.77;100.00;98081.59;5029344;28;20027;-79
2023/10/18 08:43:06;;;;;;;15.65;8.27;;;;;;;14.81;100.00;98080.47;5050495;28;20032;-77
2023/10/18 08:45:46;;;;;;;13.77;8.65;;;;;;;15.51;100.00;98070.00;5028813;28;20025;-77
2023/10/18 08:48:17;;;;;;;12.65;9.48;;;;;;;16.09;100.00;98064.97;5026316;28;20222;-77
2023/10/18 08:50:44;;;;;;;16.83;9.48;;;;;;;16.75;98.76;98051.09;5029427;28;20127;-77
2023/10/18 08:53:11;;;;;;;10.77;7.57;;;;;;;17.58;92.18;98055.97;5044102;28;20025;-75
2023/10/18 08:55:51;;;;;;;11.43;8.95;;;;;;;17.71;85.69;98059.03;5028100;28;20055;-78
2023/10/18 08:58:19;;;;;;;10.40;8.00;;;;;;;17.89;85.66;98065.13;5024352;28;20342;-79
2023/10/18 09:03:27;;;;;;;12.93;9.00;;;;;;;18.17;80.84;98067.41;5045373;28;20022;-77
2023/10/18 09:06:08;;;;;;;13.23;8.73;;;;;;;19.45;76.53;98058.31;5026455;28;20013;-79
2023/10/18 09:08:42;;;;;;;11.90;7.82;;;;;;;21.31;67.98;98059.56;5053553;28;20070;-79
2023/10/18 09:11:21;;;;;;;12.05;8.52;;;;;;;23.25;60.41;98054.03;5054974;28;20327;-83
2023/10/18 09:14:07;;;;;;;;;;;;;;;25.40;53.42;98051.94;5028197;28;20033;-80
2023/10/18 09:16:40;;;;;;;10.75;7.03;;;;;;;28.21;45.14;98058.56;5025878;28;19916;-75
2023/10/18 09:19:07;;;;;;;11.45;6.78;;;;;;;29.76;42.24;98051.81;5032925;28;20021;-76
2023/10/18 09:24:14;;;;;;;6.55;5.55;;;;;;;31.95;37.93;98055.31;5053383;28;20345;-75
2023/10/18 09:26:42;;;;;;;8.48;6.88;;;;;;;30.64;38.82;98046.59;5043462;28;20025;-76
2023/10/18 09:29:09;;;;;;;10.50;6.72;;;;;;;27.82;40.27;98027.22;5052294;28;20025;-77
2023/10/18 09:31:36;;;;;;;10.75;6.00;;;;;;;26.60;41.68;98057.31;5018603;28;20025;-76
2023/10/18 09:34:10;;;;;;;8.05;6.32;;;;;;;26.00;42.62;98023.63;5025559;28;20691;-81
2023/10/18 09:36:39;;;;;;;9.65;6.10;;;;;;;26.30;43.34;98053.50;5035684;28;20030;-79
2023/10/18 09:39:09;;;;;;;9.18;6.95;;;;;;;27.28;43.42;98052.78;5033854;28;20025;-78
2023/10/18 09:41:37;;;;;;;11.45;7.10;;;;;;;27.20;41.69;98036.97;5040112;28;20021;-78
2023/10/18 09:44:03;;;;;;;9.10;7.85;;;;;;;26.57;41.53;98019.13;5025865;28;20025;-79
2023/10/18 09:46:28;;;;;;;7.65;6.32;;;;;;;25.64;42.49;98017.47;5025254;28;20018;-78
2023/10/18 09:48:54;;;;;;;9.10;6.60;;;;;;;22.66;46.73;98017.81;5028476;28;20027;-78
2023/10/18 09:51:23;;;;;;;9.30;6.97;;;;;;;20.53;50.84;98015.44;5038891;28;20423;-79
2023/10/18 09:53:50;;;;;;;10.20;6.95;;;;;;;21.30;50.89;98009.22;5031413;28;20025;-78
2023/10/18 09:56:24;;;;;;;9.65;6.28;;;;;;;22.37;49.90;98009.72;5043845;28;20064;-78
2023/10/18 09:58:51;;;;;;;7.25;5.78;;;;;;;24.24;46.44;97977.94;5029981;28;20037;-78
2023/10/18 10:01:27;;;;;;;7.63;5.93;;;;;;;25.44;44.88;97993.94;5031161;28;20059;-78
2023/10/18 10:03:53;;;;;;;6.80;5.93;;;;;;;26.96;42.24;97995.03;5033068;28;21067;-78
2023/10/18 10:06:27;;;;;;;8.20;5.40;;;;;;;26.18;41.63;97998.69;5010223;28;20400;-78
2023/10/18 10:09:13;;;;;;;9.98;6.03;;;;;;;23.57;44.44;97989.63;5027765;28;20032;-78
2023/10/18 10:11:43;;;;;;;10.23;6.03;;;;;;;23.26;46.88;97975.63;5028592;28;20021;-80
2023/10/18 10:14:10;;;;;;;7.70;5.28;;;;;;;24.02;46.65;97975.13;5027133;28;20326;-78
2023/10/18 10:16:36;;;;;;;9.32;5.47;;;;;;;26.61;43.11;97973.72;5024205;28;20029;-73
2023/10/18 10:19:11;;;;;;;6.53;5.13;;;;;;;27.43;42.69;97964.47;5038054;28;20044;-74
2023/10/18 10:21:36;;;;;;;10.23;6.53;;;;;;;27.74;42.24;97937.16;5040365;28;20196;-78
2023/10/18 10:27:41;;;;;;;7.45;5.10;;;;;;;26.57;42.58;97966.41;5031907;28;20345;-77
2023/10/18 10:30:25;;;;;;;11.10;7.22;;;;;;;24.62;46.36;97962.94;5025809;28;20196;-77
2023/10/18 10:32:58;;;;;;;9.43;6.22;;;;;;;23.26;47.74;97948.03;5032669;28;20027;-77
2023/10/18 10:35:25;;;;;;;7.72;6.00;;;;;;;22.75;49.04;97951.75;5050819;28;20036;-77
2023/10/18 10:37:50;;;;;;;7.55;5.57;;;;;;;21.68;50.91;97954.25;5051512;28;20022;-76
2023/10/18 10:43:01;;;;;;;10.48;5.97;;;;;;;22.16;51.93;97939.50;5035614;28;20272;-77
2023/10/18 10:48:17;;;;;;;6.63;4.82;;;;;;;23.48;48.41;97927.16;5034334;28;20031;-77
2023/10/18 10:50:45;;;;;;;5.60;4.30;;;;;;;23.39;49.62;97913.25;5024886;28;20067;-77
2023/10/18 10:53:28;;;;;;;7.82;5.00;;;;;;;22.49;49.68;97927.41;5048812;28;20020;-78
2023/10/18 10:55:54;;;;;;;7.53;4.47;;;;;;;21.34;51.74;97927.72;5039071;28;20133;-77
2023/10/18 10:58:22;;;;;;;6.32;4.50;;;;;;;20.56;52.74;97909.63;5038824;28;20029;-72
2023/10/18 11:01:03;;;;;;;7.20;5.05;;;;;;;20.50;53.19;97930.00;5039434;28;20026;-71
2023/10/18 11:03:32;;;;;;;7.43;4.68;;;;;;;18.96;56.79;97919.16;5041261;28;20031;-75
2023/10/18 11:06:05;;;;;;;8.32;4.95;;;;;;;17.99;59.77;97927.50;5026250;28;20341;-76
2023/10/18 11:08:35;;;;;;;7.57;5.07;;;;;;;17.75;63.32;97925.25;5017384;28;20030;-76
2023/10/18 11:11:02;;;;;;;9.25;5.05;;;;;;;17.17;65.91;97895.31;5053692;28;20025;-76
2023/10/18 11:13:30;;;;;;;7.03;4.68;;;;;;;17.26;68.23;97890.13;5047324;28;20032;-75
2023/10/18 11:15:56;;;;;;;8.15;5.07;;;;;;;17.07;70.65;97901.56;5018014;23;20042;-72
2023/10/18 11:18:22;;;;;;;6.15;4.47;;;;;;;16.60;76.58;97901.59;5023409;28;20037;-72
2023/10/18 11:23:37;;;;;;;7.47;4.68;;;;;;;16.27;81.40;97886.34;5018823;28;20078;-71
2023/10/18 11:26:08;;;;;;;9.13;4.95;;;;;;;16.37;84.03;97872.78;5010190;28;20053;-71
2023/10/18 11:28:37;;;;;;;8.80;5.20;;;;;;;16.44;88.30;97874.19;5015772;28;20061;-71
2023/10/18 11:31:04;;;;;;;7.20;4.70;;;;;;;16.61;90.98;97870.44;5004286;28;20049;-72
2023/10/18 11:33:46;;;;;;;9.48;5.13;;;;;;;16.81;89.85;97864.31;5013623;28;20029;-72
2023/10/18 11:36:17;;;;;;;8.63;5.00;;;;;;;16.94;87.75;97854.78;5001397;28;20048;-71
2023/10/18 11:39:07;;;;;;;5.93;4.18;;;;;;;17.11;86.94;97866.34;5000864;28;20033;-72
2023/10/18 11:41:34;;;;;;;6.43;3.97;;;;;;;17.46;84.19;97862.03;5007876;28;20171;-72
2023/10/18 11:44:06;;;;;;;8.27;4.38;;;;;;;17.36;78.78;97859.28;4987812;28;20218;-72
2023/10/18 11:46:50;;;;;;;6.53;4.10;;;;;;;17.13;83.03;97855.13;4995282;28;20018;-72
2023/10/18 11:49:19;;;;;;;7.63;4.97;;;;;;;16.64;83.25;97853.56;5007776;28;20026;-72
2023/10/18 11:51:48;;;;;;;7.63;4.55;;;;;;;16.34;89.27;97838.63;5009955;28;20018;-73
2023/10/18 11:54:34;;;;;;;9.30;5.53;;;;;;;15.94;93.72;97829.09;5007911;28;20026;-72
2023/10/18 11:57:02;;;;;;;8.38;4.60;;;;;;;15.88;99.92;97821.16;5001594;28;20040;-72
2023/10/18 11:59:28;;;;;;;8.13;4.35;;;;;;;15.76;100.00;97816.69;5023796;28;20033;-73
2023/10/18 12:01:58;;;;;;;7.40;3.92;;;;;;;15.95;100.00;97814.38;5006550;28;20026;-74
2023/10/18 12:04:27;;;;;;;6.15;3.92;;;;;;;16.17;100.00;97821.63;5001655;28;20033;-75
2023/10/18 12:06:57;;;;;;;6.18;3.97;;;;;;;16.24;100.00;97816.75;5007925;28;20018;-76
2023/10/18 12:11:48;;;;;;;6.05;4.18;;;;;;;16.30;100.00;97798.50;5005998;28;20062;-73
2023/10/18 12:14:14;;;;;;;11.90;4.50;;;;;;;16.44;100.00;97791.47;4996757;28;20322;-74
2023/10/18 12:16:41;;;;;;;8.40;3.83;;;;;;;16.46;100.00;97785.75;5016890;28;20026;-74
2023/10/18 12:19:10;;;;;;;9.10;3.85;;;;;;;16.42;100.00;97779.97;5007590;28;20037;-76
2023/10/18 12:21:36;;;;;;;5.88;3.75;;;;;;;16.36;100.00;97781.06;5005177;28;20026;-75